Pagrindinis puslapis
METAR-TAF:

METAR-TAF

Oro uostai :

Korumba, Pietų Mato Grosas, Brazilija

platuma: 19-05S, ilguma: 057-30W, Aukštis: 130 m

Dabartinis oras

Ataskaita buvo paskelbta 10 valandos ir 28 minutes, ne 21:00 UTC
Vėjas 11 kt iš Pietų/Pietvakarių, svyruoja nuo Pietų/Pietryčių ir Vakarų/Pietvakarių
Temperatūra 29°C
Drėgmė 70%
Slėgis 1003 hPa
Matomumas 10 km arba daugiau
Išsisklaidę debesys ne aukštis 3500 ft

METAR: SBCR 232100Z 20011KT 150V250 9999 SCT035 29/23 Q1003

Laikas: 03:28 (07:28 UTC)

Prognozė

Ataskaita buvo paskelbta 4 valandos ir 58 minutes, ne 02:30 UTC
Prognozė galioja nuo 24 metu 06 UTC su 25 metu 06 UTC
Vėjas 10 kt iš Pietvakarių
Matomumas 10 km arba daugiau
Su prošvaistėmis ne aukštis 2000 ft
Tikimybė 40%
nuo 24 metu 06 UTC su 24 metu 11 UTC
Su prošvaistėmis ne aukštis 1200 ft
Tapsmas
nuo 24 metu 13 UTC su 24 metu 15 UTC
Išsisklaidę debesys ne aukštis 3000 ft

TAF: SBCR 240230Z 2406/2506 22010KT 9999 BKN020 TN24/2408Z TX29/2418Z PROB40 2406/2411 BKN012 BECMG 2413/2415 SCT030 RMK PDW

Orai ataskaitas ir orų prognozės (METAR, TAF).

turimą stotys yra geltonos ir raudonos taškus žemėlapyje.

Perkelti pele per norėdami pamatyti stoties vardą.

Tada spustelėkite, norėdami matyti oro stebėjimo ir prognozės.

Norėdami pakeisti žemėlapį: spustelėkite ant žalios mygtukų su juodo kryžiaus žemyn,; žalią mygtuką su brūkšneliu, jei norite nutolinti; arba žalių rodyklių gretimoms žemėlapius.


METAR-TAF: